Terminal Aerodrome Forecast
Issued by NWS Raleigh/Durham, NC

Home | Current Version | Previous Version | Text Only | Print | Product List | Glossary On
Versions: 1 2 3 4 5 6 7 8 9 10 11 12 13 14 15 16 17 18 19
000
FTUS42 KRAH 230539
TAFFAY
TAF
KFAY 230539Z 2306/2406 21007KT P6SM FEW120
     FM231800 22010KT P6SM SCT060 BKN250 PROB30 2318/2322 VRB15G30KT
      2SM TSRA BKN025CB
     FM240300 22007KT P6SM BKN090=

USA.gov is the U.S. government's official web portal to all federal, state and local government web resources and services.